sensor_id;sensor_type;location;lat;lon;timestamp;pressure;altitude;pressure_sealevel;temperature;humidity
77590;BME280;66746;51.328;12.332;2023-12-04T00:01:22;100985.84;;;-3.94;100.00
77590;BME280;66746;51.328;12.332;2023-12-04T00:03:52;100982.44;;;-3.90;100.00
77590;BME280;66746;51.328;12.332;2023-12-04T00:06:25;100980.34;;;-4.00;100.00
77590;BME280;66746;51.328;12.332;2023-12-04T00:08:52;100985.84;;;-3.94;100.00
77590;BME280;66746;51.328;12.332;2023-12-04T00:11:22;100982.25;;;-3.96;100.00
77590;BME280;66746;51.328;12.332;2023-12-04T00:13:51;100974.03;;;-4.05;100.00
77590;BME280;66746;51.328;12.332;2023-12-04T00:16:20;100980.09;;;-4.09;100.00
77590;BME280;66746;51.328;12.332;2023-12-04T00:18:48;100964.88;;;-4.15;100.00
77590;BME280;66746;51.328;12.332;2023-12-04T00:21:15;100973.09;;;-4.07;100.00
77590;BME280;66746;51.328;12.332;2023-12-04T00:23:49;100965.00;;;-4.12;100.00
77590;BME280;66746;51.328;12.332;2023-12-04T00:26:16;100957.97;;;-4.11;100.00
77590;BME280;66746;51.328;12.332;2023-12-04T00:28:43;100961.91;;;-3.97;100.00
77590;BME280;66746;51.328;12.332;2023-12-04T00:31:09;100966.16;;;-4.02;100.00
77590;BME280;66746;51.328;12.332;2023-12-04T00:33:36;100982.13;;;-3.99;100.00
77590;BME280;66746;51.328;12.332;2023-12-04T00:36:04;100975.13;;;-3.97;100.00
77590;BME280;66746;51.328;12.332;2023-12-04T00:38:32;100983.28;;;-3.91;100.00
77590;BME280;66746;51.328;12.332;2023-12-04T00:41:02;100980.53;;;-3.94;100.00
77590;BME280;66746;51.328;12.332;2023-12-04T00:43:29;100976.28;;;-3.89;100.00
77590;BME280;66746;51.328;12.332;2023-12-04T00:46:03;100987.16;;;-3.80;100.00
77590;BME280;66746;51.328;12.332;2023-12-04T00:48:30;100978.31;;;-3.81;100.00
77590;BME280;66746;51.328;12.332;2023-12-04T00:51:02;100972.81;;;-3.87;100.00
77590;BME280;66746;51.328;12.332;2023-12-04T00:53:28;100980.34;;;-3.72;100.00
77590;BME280;66746;51.328;12.332;2023-12-04T00:55:55;100976.50;;;-3.82;100.00
77590;BME280;66746;51.328;12.332;2023-12-04T00:58:24;100976.44;;;-3.83;100.00
77590;BME280;66746;51.328;12.332;2023-12-04T01:00:54;100972.09;;;-3.81;100.00
77590;BME280;66746;51.328;12.332;2023-12-04T01:03:21;100970.22;;;-3.85;100.00
77590;BME280;66746;51.328;12.332;2023-12-04T01:05:47;100968.53;;;-3.82;100.00
77590;BME280;66746;51.328;12.332;2023-12-04T01:08:14;100950.66;;;-3.90;100.00
77590;BME280;66746;51.328;12.332;2023-12-04T01:10:41;100958.78;;;-3.84;100.00
77590;BME280;66746;51.328;12.332;2023-12-04T01:13:07;100956.19;;;-3.81;100.00
77590;BME280;66746;51.328;12.332;2023-12-04T01:15:35;100949.31;;;-3.76;100.00
77590;BME280;66746;51.328;12.332;2023-12-04T01:18:02;100942.19;;;-3.77;100.00
77590;BME280;66746;51.328;12.332;2023-12-04T01:20:29;100941.22;;;-3.81;100.00
77590;BME280;66746;51.328;12.332;2023-12-04T01:22:59;100937.63;;;-3.83;100.00
77590;BME280;66746;51.328;12.332;2023-12-04T01:25:30;100941.00;;;-3.88;100.00
77590;BME280;66746;51.328;12.332;2023-12-04T01:27:57;100949.97;;;-3.83;100.00
77590;BME280;66746;51.328;12.332;2023-12-04T01:30:26;100937.44;;;-3.89;100.00
77590;BME280;66746;51.328;12.332;2023-12-04T01:32:54;100935.66;;;-3.90;100.00
77590;BME280;66746;51.328;12.332;2023-12-04T01:35:21;100932.19;;;-3.87;100.00
77590;BME280;66746;51.328;12.332;2023-12-04T01:37:47;100929.28;;;-3.96;100.00
77590;BME280;66746;51.328;12.332;2023-12-04T01:40:18;100922.25;;;-3.96;100.00
77590;BME280;66746;51.328;12.332;2023-12-04T01:42:47;100916.81;;;-4.00;100.00
77590;BME280;66746;51.328;12.332;2023-12-04T01:45:14;100908.88;;;-4.00;100.00
77590;BME280;66746;51.328;12.332;2023-12-04T01:47:43;100913.28;;;-3.99;100.00
77590;BME280;66746;51.328;12.332;2023-12-04T01:50:14;100907.75;;;-4.08;100.00
77590;BME280;66746;51.328;12.332;2023-12-04T01:52:42;100908.59;;;-4.09;100.00
77590;BME280;66746;51.328;12.332;2023-12-04T01:55:09;100914.91;;;-4.04;100.00
77590;BME280;66746;51.328;12.332;2023-12-04T01:57:39;100913.22;;;-4.02;100.00
77590;BME280;66746;51.328;12.332;2023-12-04T02:00:07;100899.09;;;-4.01;100.00
77590;BME280;66746;51.328;12.332;2023-12-04T02:02:37;100894.53;;;-4.07;100.00
77590;BME280;66746;51.328;12.332;2023-12-04T02:05:07;100887.47;;;-4.08;100.00
77590;BME280;66746;51.328;12.332;2023-12-04T02:07:35;100900.81;;;-4.03;100.00
77590;BME280;66746;51.328;12.332;2023-12-04T02:10:02;100892.97;;;-4.00;100.00
77590;BME280;66746;51.328;12.332;2023-12-04T02:12:31;100891.22;;;-4.00;100.00
77590;BME280;66746;51.328;12.332;2023-12-04T02:15:04;100875.97;;;-4.08;100.00
77590;BME280;66746;51.328;12.332;2023-12-04T02:17:35;100882.28;;;-4.03;100.00
77590;BME280;66746;51.328;12.332;2023-12-04T02:20:05;100885.97;;;-3.98;100.00
77590;BME280;66746;51.328;12.332;2023-12-04T02:22:32;100886.13;;;-3.94;100.00
77590;BME280;66746;51.328;12.332;2023-12-04T02:25:00;100863.75;;;-4.03;100.00
77590;BME280;66746;51.328;12.332;2023-12-04T02:27:33;100879.25;;;-3.86;100.00
77590;BME280;66746;51.328;12.332;2023-12-04T02:30:01;100858.63;;;-3.97;100.00
77590;BME280;66746;51.328;12.332;2023-12-04T02:32:30;100866.69;;;-3.93;100.00
77590;BME280;66746;51.328;12.332;2023-12-04T02:34:59;100855.03;;;-3.99;100.00
77590;BME280;66746;51.328;12.332;2023-12-04T02:37:30;100862.22;;;-3.95;100.00
77590;BME280;66746;51.328;12.332;2023-12-04T02:40:02;100859.69;;;-3.91;100.00
77590;BME280;66746;51.328;12.332;2023-12-04T02:42:29;100860.72;;;-3.86;100.00
77590;BME280;66746;51.328;12.332;2023-12-04T02:44:56;100857.00;;;-3.92;100.00
77590;BME280;66746;51.328;12.332;2023-12-04T02:47:25;100850.69;;;-3.97;100.00
77590;BME280;66746;51.328;12.332;2023-12-04T02:49:54;100856.06;;;-3.94;100.00
77590;BME280;66746;51.328;12.332;2023-12-04T02:52:21;100850.00;;;-3.90;100.00
77590;BME280;66746;51.328;12.332;2023-12-04T02:54:48;100850.00;;;-3.90;100.00
77590;BME280;66746;51.328;12.332;2023-12-04T02:57:19;100850.19;;;-3.84;100.00
77590;BME280;66746;51.328;12.332;2023-12-04T02:59:45;100859.94;;;-3.82;100.00
77590;BME280;66746;51.328;12.332;2023-12-04T03:02:12;100851.34;;;-3.73;100.00
77590;BME280;66746;51.328;12.332;2023-12-04T03:04:39;100834.28;;;-3.84;100.00
77590;BME280;66746;51.328;12.332;2023-12-04T03:07:05;100841.69;;;-3.71;100.00
77590;BME280;66746;51.328;12.332;2023-12-04T03:09:32;100837.41;;;-3.66;100.00
77590;BME280;66746;51.328;12.332;2023-12-04T03:12:15;100840.75;;;-3.73;100.00
77590;BME280;66746;51.328;12.332;2023-12-04T03:14:44;100815.22;;;-3.71;100.00
77590;BME280;66746;51.328;12.332;2023-12-04T03:17:11;100825.16;;;-3.63;100.00
77590;BME280;66746;51.328;12.332;2023-12-04T03:19:37;100830.47;;;-3.63;100.00
77590;BME280;66746;51.328;12.332;2023-12-04T03:22:04;100818.78;;;-3.69;100.00
77590;BME280;66746;51.328;12.332;2023-12-04T03:24:31;100828.69;;;-3.62;100.00
77590;BME280;66746;51.328;12.332;2023-12-04T03:26:58;100832.34;;;-3.58;100.00
77590;BME280;66746;51.328;12.332;2023-12-04T03:29:24;100831.50;;;-3.56;100.00
77590;BME280;66746;51.328;12.332;2023-12-04T03:31:53;100814.56;;;-3.63;100.00
77590;BME280;66746;51.328;12.332;2023-12-04T03:34:20;100817.41;;;-3.55;100.00
77590;BME280;66746;51.328;12.332;2023-12-04T03:36:47;100822.94;;;-3.46;100.00
77590;BME280;66746;51.328;12.332;2023-12-04T03:39:14;100801.56;;;-3.52;100.00
77590;BME280;66746;51.328;12.332;2023-12-04T03:41:41;100795.25;;;-3.58;100.00
77590;BME280;66746;51.328;12.332;2023-12-04T03:44:08;100815.84;;;-3.47;100.00
77590;BME280;66746;51.328;12.332;2023-12-04T03:46:36;100796.38;;;-3.49;100.00
77590;BME280;66746;51.328;12.332;2023-12-04T03:49:05;100798.38;;;-3.39;100.00
77590;BME280;66746;51.328;12.332;2023-12-04T03:51:32;100802.94;;;-3.33;100.00
77590;BME280;66746;51.328;12.332;2023-12-04T03:53:58;100784.97;;;-3.45;100.00
77590;BME280;66746;51.328;12.332;2023-12-04T03:56:25;100787.63;;;-3.45;100.00
77590;BME280;66746;51.328;12.332;2023-12-04T03:58:54;100785.00;;;-3.43;100.00
77590;BME280;66746;51.328;12.332;2023-12-04T04:01:22;100798.38;;;-3.39;100.00
77590;BME280;66746;51.328;12.332;2023-12-04T04:03:56;100783.59;;;-3.29;100.00
77590;BME280;66746;51.328;12.332;2023-12-04T04:06:24;100778.03;;;-3.40;100.00
77590;BME280;66746;51.328;12.332;2023-12-04T04:08:54;100778.22;;;-3.31;100.00
77590;BME280;66746;51.328;12.332;2023-12-04T04:11:20;100770.94;;;-3.41;100.00
77590;BME280;66746;51.328;12.332;2023-12-04T04:13:47;100774.69;;;-3.33;100.00
77590;BME280;66746;51.328;12.332;2023-12-04T04:16:14;100788.84;;;-3.31;100.00
77590;BME280;66746;51.328;12.332;2023-12-04T04:18:41;100786.13;;;-3.34;100.00
77590;BME280;66746;51.328;12.332;2023-12-04T04:21:07;100768.44;;;-3.35;100.00
77590;BME280;66746;51.328;12.332;2023-12-04T04:23:35;100767.56;;;-3.34;100.00
77590;BME280;66746;51.328;12.332;2023-12-04T04:26:02;100770.38;;;-3.28;100.00
77590;BME280;66746;51.328;12.332;2023-12-04T04:28:29;100768.50;;;-3.32;100.00
77590;BME280;66746;51.328;12.332;2023-12-04T04:30:59;100764.94;;;-3.34;100.00
77590;BME280;66746;51.328;12.332;2023-12-04T04:33:28;100750.72;;;-3.37;100.00
77590;BME280;66746;51.328;12.332;2023-12-04T04:35:57;100750.81;;;-3.33;100.00
77590;BME280;66746;51.328;12.332;2023-12-04T04:38:29;100756.19;;;-3.30;100.00
77590;BME280;66746;51.328;12.332;2023-12-04T04:41:00;100744.44;;;-3.41;100.00
77590;BME280;66746;51.328;12.332;2023-12-04T04:43:27;100747.16;;;-3.38;100.00
77590;BME280;66746;51.328;12.332;2023-12-04T04:45:56;100747.09;;;-3.41;100.00
77590;BME280;66746;51.328;12.332;2023-12-04T04:48:27;100743.59;;;-3.38;100.00
77590;BME280;66746;51.328;12.332;2023-12-04T04:50:54;100749.06;;;-3.31;100.00
77590;BME280;66746;51.328;12.332;2023-12-04T04:53:21;100727.66;;;-3.40;100.00
77590;BME280;66746;51.328;12.332;2023-12-04T04:55:58;100731.56;;;-3.24;100.00
77590;BME280;66746;51.328;12.332;2023-12-04T04:58:29;100734.16;;;-3.27;100.00
77590;BME280;66746;51.328;12.332;2023-12-04T05:00:59;100703.59;;;-3.50;100.00
77590;BME280;66746;51.328;12.332;2023-12-04T05:03:36;100730.34;;;-3.38;100.00
77590;BME280;66746;51.328;12.332;2023-12-04T05:06:04;100709.69;;;-3.53;100.00
77590;BME280;66746;51.328;12.332;2023-12-04T05:08:31;100726.81;;;-3.39;100.00
77590;BME280;66746;51.328;12.332;2023-12-04T05:10:57;100715.19;;;-3.44;100.00
77590;BME280;66746;51.328;12.332;2023-12-04T05:13:27;100714.38;;;-3.41;100.00
77590;BME280;66746;51.328;12.332;2023-12-04T05:15:54;100715.28;;;-3.41;100.00
77590;BME280;66746;51.328;12.332;2023-12-04T05:18:22;100697.44;;;-3.48;100.00
77590;BME280;66746;51.328;12.332;2023-12-04T05:20:51;100706.31;;;-3.46;100.00
77590;BME280;66746;51.328;12.332;2023-12-04T05:23:18;100691.97;;;-3.54;100.00
77590;BME280;66746;51.328;12.332;2023-12-04T05:25:48;100699.16;;;-3.50;100.00
77590;BME280;66746;51.328;12.332;2023-12-04T05:28:19;100708.13;;;-3.45;100.00
77590;BME280;66746;51.328;12.332;2023-12-04T05:30:47;100694.03;;;-3.42;100.00
77590;BME280;66746;51.328;12.332;2023-12-04T05:33:20;100703.03;;;-3.36;100.00
77590;BME280;66746;51.328;12.332;2023-12-04T05:35:48;100704.84;;;-3.35;100.00
77590;BME280;66746;51.328;12.332;2023-12-04T05:38:14;100694.03;;;-3.42;100.00
77590;BME280;66746;51.328;12.332;2023-12-04T05:40:41;100697.66;;;-3.39;100.00
77590;BME280;66746;51.328;12.332;2023-12-04T05:43:07;100711.75;;;-3.40;100.00
77590;BME280;66746;51.328;12.332;2023-12-04T05:45:34;100695.94;;;-3.37;100.00
77590;BME280;66746;51.328;12.332;2023-12-04T05:48:02;100691.53;;;-3.36;100.00
77590;BME280;66746;51.328;12.332;2023-12-04T05:50:29;100690.41;;;-3.46;100.00
77590;BME280;66746;51.328;12.332;2023-12-04T05:52:58;100685.94;;;-3.48;100.00
77590;BME280;66746;51.328;12.332;2023-12-04T05:55:32;100692.13;;;-3.48;100.00
77590;BME280;66746;51.328;12.332;2023-12-04T05:57:59;100690.50;;;-3.43;100.00
77590;BME280;66746;51.328;12.332;2023-12-04T06:00:26;100677.16;;;-3.46;100.00
77590;BME280;66746;51.328;12.332;2023-12-04T06:02:55;100694.13;;;-3.38;100.00
77590;BME280;66746;51.328;12.332;2023-12-04T06:05:23;100679.13;;;-3.37;100.00
77590;BME280;66746;51.328;12.332;2023-12-04T06:07:50;100671.00;;;-3.45;100.00
77590;BME280;66746;51.328;12.332;2023-12-04T06:10:17;100670.00;;;-3.50;100.00
77590;BME280;66746;51.328;12.332;2023-12-04T06:12:44;100665.56;;;-3.51;100.00
77590;BME280;66746;51.328;12.332;2023-12-04T06:15:10;100657.66;;;-3.49;100.00
77590;BME280;66746;51.328;12.332;2023-12-04T06:17:39;100666.66;;;-3.43;100.00
77590;BME280;66746;51.328;12.332;2023-12-04T06:20:07;100656.97;;;-3.41;100.00
77590;BME280;66746;51.328;12.332;2023-12-04T06:22:37;100651.59;;;-3.44;100.00
77590;BME280;66746;51.328;12.332;2023-12-04T06:25:09;100650.66;;;-3.46;100.00
77590;BME280;66746;51.328;12.332;2023-12-04T06:27:36;100653.41;;;-3.43;100.00
77590;BME280;66746;51.328;12.332;2023-12-04T06:30:05;100659.25;;;-3.56;100.00
77590;BME280;66746;51.328;12.332;2023-12-04T06:32:32;100652.38;;;-3.48;100.00
77590;BME280;66746;51.328;12.332;2023-12-04T06:34:59;100644.38;;;-3.51;100.00
77590;BME280;66746;51.328;12.332;2023-12-04T06:37:27;100636.41;;;-3.52;100.00
77590;BME280;66746;51.328;12.332;2023-12-04T06:40:01;100638.84;;;-3.60;100.00
77590;BME280;66746;51.328;12.332;2023-12-04T06:42:30;100652.22;;;-3.55;100.00
77590;BME280;66746;51.328;12.332;2023-12-04T06:45:05;100636.25;;;-3.58;100.00
77590;BME280;66746;51.328;12.332;2023-12-04T06:47:34;100631.00;;;-3.55;100.00
77590;BME280;66746;51.328;12.332;2023-12-04T06:50:00;100631.13;;;-3.51;100.00
77590;BME280;66746;51.328;12.332;2023-12-04T06:52:37;100617.59;;;-3.63;100.00
77590;BME280;66746;51.328;12.332;2023-12-04T06:55:06;100634.59;;;-3.53;100.00
77590;BME280;66746;51.328;12.332;2023-12-04T06:57:33;100627.53;;;-3.53;100.00
77590;BME280;66746;51.328;12.332;2023-12-04T07:00:03;100631.78;;;-3.61;100.00
77590;BME280;66746;51.328;12.332;2023-12-04T07:02:48;100638.97;;;-3.54;100.00
77590;BME280;66746;51.328;12.332;2023-12-04T07:05:25;100630.19;;;-3.53;100.00
77590;BME280;66746;51.328;12.332;2023-12-04T07:07:57;100623.22;;;-3.48;100.00
77590;BME280;66746;51.328;12.332;2023-12-04T07:10:27;100618.69;;;-3.53;100.00
77590;BME280;66746;51.328;12.332;2023-12-04T07:12:56;100605.00;;;-3.73;100.00
77590;BME280;66746;51.328;12.332;2023-12-04T07:15:22;100611.03;;;-3.79;100.00
77590;BME280;66746;51.328;12.332;2023-12-04T07:17:49;100606.06;;;-3.65;100.00
77590;BME280;66746;51.328;12.332;2023-12-04T07:20:16;100627.50;;;-3.54;100.00
77590;BME280;66746;51.328;12.332;2023-12-04T07:22:44;100600.75;;;-3.65;100.00
77590;BME280;66746;51.328;12.332;2023-12-04T07:25:16;100627.59;;;-3.50;100.00
77590;BME280;66746;51.328;12.332;2023-12-04T07:27:48;100624.13;;;-3.47;100.00
77590;BME280;66746;51.328;12.332;2023-12-04T07:30:16;100633.97;;;-3.42;100.00
77590;BME280;66746;51.328;12.332;2023-12-04T07:32:45;100626.88;;;-3.43;100.00
77590;BME280;66746;51.328;12.332;2023-12-04T07:35:12;100621.59;;;-3.43;100.00
77590;BME280;66746;51.328;12.332;2023-12-04T07:37:38;100643.94;;;-3.30;100.00
77590;BME280;66746;51.328;12.332;2023-12-04T08:02:45;100647.94;;;-3.09;100.00
77590;BME280;66746;51.328;12.332;2023-12-04T08:05:33;100641.00;;;-3.04;100.00
77590;BME280;66746;51.328;12.332;2023-12-04T08:08:21;100632.84;;;-3.13;100.00
77590;BME280;66746;51.328;12.332;2023-12-04T08:14:34;100619.03;;;-2.97;100.00
77590;BME280;66746;51.328;12.332;2023-12-04T08:17:08;100624.47;;;-2.91;100.00
77590;BME280;66746;51.328;12.332;2023-12-04T08:20:06;100633.53;;;-2.80;100.00
77590;BME280;66746;51.328;12.332;2023-12-04T12:27:04;100351.31;;;-0.46;90.88
77590;BME280;66746;51.328;12.332;2023-12-04T12:32:27;100318.38;;;-0.62;91.32
77590;BME280;66746;51.328;12.332;2023-12-04T12:33:21;100338.84;;;-0.53;91.76
77590;BME280;66746;51.328;12.332;2023-12-04T12:40:06;100299.72;;;-0.63;93.88
77590;BME280;66746;51.328;12.332;2023-12-04T12:43:16;100302.44;;;-0.59;92.71
77590;BME280;66746;51.328;12.332;2023-12-04T12:46:46;100313.13;;;-0.47;92.50
77590;BME280;66746;51.328;12.332;2023-12-04T12:52:04;100288.22;;;-0.58;95.78
77590;BME280;66746;51.328;12.332;2023-12-04T12:55:31;100300.75;;;-0.42;95.97
77590;BME280;66746;51.328;12.332;2023-12-04T12:58:36;100307.84;;;-0.44;93.40
77590;BME280;66746;51.328;12.332;2023-12-04T13:01:35;100298.88;;;-0.55;89.35
77590;BME280;66746;51.328;12.332;2023-12-04T13:04:34;100298.03;;;-0.49;92.89
77590;BME280;66746;51.328;12.332;2023-12-04T13:07:22;100282.03;;;-0.55;93.05
77590;BME280;66746;51.328;12.332;2023-12-04T13:10:12;100278.50;;;-0.51;92.17
77590;BME280;66746;51.328;12.332;2023-12-04T13:13:14;100274.94;;;-0.50;91.71
77590;BME280;66746;51.328;12.332;2023-12-04T13:16:26;100259.81;;;-0.65;95.18
77590;BME280;66746;51.328;12.332;2023-12-04T13:19:19;100278.50;;;-0.51;92.63
77590;BME280;66746;51.328;12.332;2023-12-04T13:32:56;100226.09;;;-0.61;96.12
77590;BME280;66746;51.328;12.332;2023-12-04T13:35:39;100218.09;;;-0.61;96.98
77590;BME280;66746;51.328;12.332;2023-12-04T13:38:10;100207.41;;;-0.64;95.65
77590;BME280;66746;51.328;12.332;2023-12-04T13:41:15;100219.88;;;-0.60;96.42
77590;BME280;66746;51.328;12.332;2023-12-04T13:44:01;100223.47;;;-0.55;96.95
77590;BME280;66746;51.328;12.332;2023-12-04T13:47:11;100224.31;;;-0.56;98.77
77590;BME280;66746;51.328;12.332;2023-12-04T13:50:30;100207.44;;;-0.58;96.75
77590;BME280;66746;51.328;12.332;2023-12-04T13:53:50;100197.66;;;-0.64;97.68
77590;BME280;66746;51.328;12.332;2023-12-04T13:57:09;100198.59;;;-0.54;96.80
77590;BME280;66746;51.328;12.332;2023-12-04T14:00:36;100170.19;;;-0.61;97.25
77590;BME280;66746;51.328;12.332;2023-12-04T14:07:09;100179.97;;;-0.47;98.39
77590;BME280;66746;51.328;12.332;2023-12-04T14:10:12;100160.41;;;-0.55;99.42
77590;BME280;66746;51.328;12.332;2023-12-04T14:13:15;100147.09;;;-0.59;99.65
77590;BME280;66746;51.328;12.332;2023-12-04T14:35:40;100128.47;;;-0.58;99.94
77590;BME280;66746;51.328;12.332;2023-12-04T16:43:09;100006.88;;;-0.66;100.00
77590;BME280;66746;51.328;12.332;2023-12-04T16:45:40;100008.63;;;-0.68;99.93
77590;BME280;66746;51.328;12.332;2023-12-04T16:48:14;100003.31;;;-0.70;99.34
77590;BME280;66746;51.328;12.332;2023-12-04T16:50:43;100010.44;;;-0.69;100.00
77590;BME280;66746;51.328;12.332;2023-12-04T16:53:13;100006.88;;;-0.69;99.80
77590;BME280;66746;51.328;12.332;2023-12-04T16:55:46;100001.53;;;-0.74;99.24
77590;BME280;66746;51.328;12.332;2023-12-04T16:58:14;99994.47;;;-0.76;99.96
77590;BME280;66746;51.328;12.332;2023-12-04T17:00:46;99986.47;;;-0.76;100.00
77590;BME280;66746;51.328;12.332;2023-12-04T17:03:19;99983.78;;;-0.82;100.00
77590;BME280;66746;51.328;12.332;2023-12-04T17:05:53;99985.56;;;-0.78;100.00
77590;BME280;66746;51.328;12.332;2023-12-04T17:08:29;99989.13;;;-0.81;98.06
77590;BME280;66746;51.328;12.332;2023-12-04T17:10:56;99995.31;;;-0.82;99.69
77590;BME280;66746;51.328;12.332;2023-12-04T17:13:36;99983.78;;;-0.82;100.00
77590;BME280;66746;51.328;12.332;2023-12-04T17:37:24;99978.41;;;-1.04;100.00
77590;BME280;66746;51.328;12.332;2023-12-04T17:41:09;99985.53;;;-0.97;100.00
77590;BME280;66746;51.328;12.332;2023-12-04T17:43:54;99974.00;;;-0.97;100.00
77590;BME280;66746;51.328;12.332;2023-12-04T17:46:52;99968.66;;;-1.06;100.00
77590;BME280;66746;51.328;12.332;2023-12-04T18:50:00;99923.44;;;-0.99;97.18
77590;BME280;66746;51.328;12.332;2023-12-04T18:52:54;99930.53;;;-0.99;94.89
77590;BME280;66746;51.328;12.332;2023-12-04T18:55:40;99936.75;;;-0.96;95.84
77590;BME280;66746;51.328;12.332;2023-12-04T18:58:21;99933.19;;;-1.01;95.07
77590;BME280;66746;51.328;12.332;2023-12-04T19:01:05;99932.31;;;-1.03;95.83
77590;BME280;66746;51.328;12.332;2023-12-04T19:03:50;99930.53;;;-0.98;94.48
77590;BME280;66746;51.328;12.332;2023-12-04T19:06:25;99928.75;;;-1.02;93.71
77590;BME280;66746;51.328;12.332;2023-12-04T19:09:11;99941.19;;;-0.95;95.99
77590;BME280;66746;51.328;12.332;2023-12-04T19:12:03;99934.09;;;-0.99;93.97
77590;BME280;66746;51.328;12.332;2023-12-04T19:15:09;99935.84;;;-0.98;95.19
77590;BME280;66746;51.328;12.332;2023-12-04T19:17:36;99948.25;;;-1.00;94.22
77590;BME280;66746;51.328;12.332;2023-12-04T19:20:05;99944.72;;;-0.99;95.72
77590;BME280;66746;51.328;12.332;2023-12-04T19:22:35;99940.31;;;-0.98;92.39
77590;BME280;66746;51.328;12.332;2023-12-04T19:25:07;99934.09;;;-0.99;92.63
77590;BME280;66746;51.328;12.332;2023-12-04T19:27:34;99928.75;;;-1.02;90.72
77590;BME280;66746;51.328;12.332;2023-12-04T19:30:01;99931.41;;;-1.05;93.84
77590;BME280;66746;51.328;12.332;2023-12-04T19:32:28;99929.66;;;-1.03;96.82
77590;BME280;66746;51.328;12.332;2023-12-04T19:34:57;99921.66;;;-1.09;92.93
77590;BME280;66746;51.328;12.332;2023-12-04T19:37:28;99915.47;;;-1.05;92.79
77590;BME280;66746;51.328;12.332;2023-12-04T19:40:00;99911.91;;;-1.01;95.77
77590;BME280;66746;51.328;12.332;2023-12-04T19:42:41;99902.16;;;-0.97;97.13
77590;BME280;66746;51.328;12.332;2023-12-04T19:45:14;99887.09;;;-1.04;94.30
77590;BME280;66746;51.328;12.332;2023-12-04T19:47:41;99895.03;;;-1.06;95.95
77590;BME280;66746;51.328;12.332;2023-12-04T19:50:08;99887.06;;;-1.06;95.46
77590;BME280;66746;51.328;12.332;2023-12-04T20:03:40;99880.84;;;-1.17;95.38
77590;BME280;66746;51.328;12.332;2023-12-04T20:06:08;99870.22;;;-1.17;96.08
77590;BME280;66746;51.328;12.332;2023-12-04T20:08:34;99872.88;;;-1.20;95.93
77590;BME280;66746;51.328;12.332;2023-12-04T20:11:01;99877.31;;;-1.20;93.94
77590;BME280;66746;51.328;12.332;2023-12-04T20:13:27;99871.13;;;-1.18;94.36
